Time;durP1;ratioP1;P1;durP2;ratioP2;P2;SDS_P1;SDS_P2;PMS_P1;PMS_P2;Temp;Humidity;BMP_temperature;BMP_pressure;BME280_temperature;BME280_humidity;BME280_pressure;Samples;Min_cycle;Max_cycle;Signal;HPM_P1;HPM_P2
2019/09/08 00:00:51;;;;;;;13.7;12.15;;;;;;;8.69;100;95379.17;;;;
2019/09/08 00:01:53;;;;;;;13.7;12.15;;;;;;;8.69;100;95379.17;;;;
2019/09/08 00:02:54;;;;;;;13.7;12.15;;;;;;;8.69;100;95379.17;;;;
2019/09/08 00:03:55;;;;;;;13.7;12.15;;;;;;;8.69;100;95379.17;;;;
2019/09/08 00:04:56;;;;;;;13.7;12.15;;;;;;;8.69;100;95379.17;;;;
2019/09/08 00:05:58;;;;;;;13.7;12.15;;;;;;;8.69;100;95379.17;;;;
2019/09/08 00:06:59;;;;;;;13.7;12.15;;;;;;;8.69;100;95379.17;;;;
2019/09/08 00:08:00;;;;;;;13.7;12.15;;;;;;;8.69;100;95379.17;;;;
2019/09/08 00:09:02;;;;;;;16.2;13.6;;;;;;;8.78;100;95359.92;;;;
2019/09/08 00:10:04;;;;;;;16.2;13.6;;;;;;;8.78;100;95359.92;;;;
2019/09/08 00:11:07;;;;;;;16.2;13.6;;;;;;;8.78;100;95359.92;;;;
2019/09/08 00:12:08;;;;;;;16.2;13.6;;;;;;;8.78;100;95359.92;;;;
2019/09/08 00:13:09;;;;;;;16.2;13.6;;;;;;;8.78;100;95359.92;;;;
2019/09/08 00:14:10;;;;;;;16.2;13.6;;;;;;;8.78;100;95359.92;;;;
2019/09/08 00:15:12;;;;;;;16.2;13.6;;;;;;;8.78;100;95359.92;;;;
2019/09/08 00:16:14;;;;;;;16.2;13.6;;;;;;;8.78;100;95359.92;;;;
2019/09/08 00:17:15;;;;;;;16.2;13.6;;;;;;;8.78;100;95359.92;;;;
2019/09/08 00:18:17;;;;;;;16.2;13.6;;;;;;;8.78;100;95359.92;;;;
2019/09/08 00:19:18;;;;;;;12.95;11.55;;;;;;;8.79;100;95353.1;;;;
2019/09/08 00:20:20;;;;;;;12.95;11.55;;;;;;;8.79;100;95353.1;;;;
2019/09/08 00:21:22;;;;;;;12.95;11.55;;;;;;;8.79;100;95353.1;;;;
2019/09/08 00:22:23;;;;;;;12.95;11.55;;;;;;;8.79;100;95353.1;;;;
2019/09/08 00:23:24;;;;;;;12.95;11.55;;;;;;;8.79;100;95353.1;;;;
2019/09/08 00:24:25;;;;;;;12.95;11.55;;;;;;;8.79;100;95353.1;;;;
2019/09/08 00:25:26;;;;;;;12.95;11.55;;;;;;;8.79;100;95353.1;;;;
2019/09/08 00:26:30;;;;;;;12.95;11.55;;;;;;;8.79;100;95353.1;;;;
2019/09/08 00:27:31;;;;;;;12.95;11.55;;;;;;;8.79;100;95353.1;;;;
2019/09/08 00:28:32;;;;;;;12.95;11.55;;;;;;;8.79;100;95353.1;;;;
2019/09/08 00:29:33;;;;;;;12.95;11.55;;;;;;;8.79;100;95353.1;;;;
2019/09/08 00:30:35;;;;;;;12.7;11.25;;;;;;;8.82;100;95361.14;;;;
2019/09/08 00:31:37;;;;;;;12.7;11.25;;;;;;;8.82;100;95361.14;;;;
2019/09/08 00:32:39;;;;;;;12.7;11.25;;;;;;;8.82;100;95361.14;;;;
2019/09/08 00:33:40;;;;;;;12.7;11.25;;;;;;;8.82;100;95361.14;;;;
2019/09/08 00:34:41;;;;;;;12.7;11.25;;;;;;;8.82;100;95361.14;;;;
2019/09/08 00:35:42;;;;;;;12.7;11.25;;;;;;;8.82;100;95361.14;;;;
2019/09/08 00:36:43;;;;;;;12.7;11.25;;;;;;;8.82;100;95361.14;;;;
2019/09/08 00:37:44;;;;;;;12.7;11.25;;;;;;;8.82;100;95361.14;;;;
2019/09/08 00:38:46;;;;;;;12.7;11.25;;;;;;;8.82;100;95361.14;;;;
2019/09/08 00:39:47;;;;;;;12.7;11.25;;;;;;;8.82;100;95361.14;;;;
2019/09/08 00:40:48;;;;;;;11.05;9.950001;;;;;;;8.76;100;95358.52;;;;
2019/09/08 00:41:49;;;;;;;11.05;9.950001;;;;;;;8.76;100;95358.52;;;;
2019/09/08 00:42:50;;;;;;;11.05;9.950001;;;;;;;8.76;100;95358.52;;;;
2019/09/08 00:43:51;;;;;;;11.05;9.950001;;;;;;;8.76;100;95358.52;;;;
2019/09/08 00:44:53;;;;;;;11.05;9.950001;;;;;;;8.76;100;95358.52;;;;
2019/09/08 00:45:54;;;;;;;11.05;9.950001;;;;;;;8.76;100;95358.52;;;;
2019/09/08 00:46:55;;;;;;;11.05;9.950001;;;;;;;8.76;100;95358.52;;;;
2019/09/08 00:47:56;;;;;;;11.05;9.950001;;;;;;;8.76;100;95358.52;;;;
2019/09/08 00:48:57;;;;;;;11.05;9.950001;;;;;;;8.76;100;95358.52;;;;
2019/09/08 00:49:58;;;;;;;11.05;9.950001;;;;;;;8.76;100;95358.52;;;;
2019/09/08 00:51:00;;;;;;;11.05;9.950001;;;;;;;8.76;100;95358.52;;;;
2019/09/08 00:52:01;;;;;;;11.3;9.55;;;;;;;8.72;100;95350.08;;;;
2019/09/08 00:53:02;;;;;;;11.3;9.55;;;;;;;8.72;100;95350.08;;;;
2019/09/08 00:54:03;;;;;;;11.3;9.55;;;;;;;8.72;100;95350.08;;;;
2019/09/08 00:55:05;;;;;;;11.3;9.55;;;;;;;8.72;100;95350.08;;;;
2019/09/08 00:56:06;;;;;;;11.3;9.55;;;;;;;8.72;100;95350.08;;;;
2019/09/08 00:57:07;;;;;;;11.3;9.55;;;;;;;8.72;100;95350.08;;;;
2019/09/08 00:58:09;;;;;;;11.3;9.55;;;;;;;8.72;100;95350.08;;;;
2019/09/08 00:59:10;;;;;;;11.3;9.55;;;;;;;8.72;100;95350.08;;;;
2019/09/08 01:00:12;;;;;;;11.3;9.55;;;;;;;8.72;100;95350.08;;;;
2019/09/08 01:01:14;;;;;;;11.3;9.55;;;;;;;8.72;100;95350.08;;;;
2019/09/08 01:02:15;;;;;;;11.95;10;;;;;;;8.63;100;95335.26;;;;
2019/09/08 01:03:16;;;;;;;11.95;10;;;;;;;8.63;100;95335.26;;;;
2019/09/08 01:04:18;;;;;;;11.95;10;;;;;;;8.63;100;95335.26;;;;
2019/09/08 01:05:19;;;;;;;11.95;10;;;;;;;8.63;100;95335.26;;;;
2019/09/08 01:06:22;;;;;;;11.95;10;;;;;;;8.63;100;95335.26;;;;
2019/09/08 01:07:23;;;;;;;11.95;10;;;;;;;8.63;100;95335.26;;;;
2019/09/08 01:08:24;;;;;;;11.95;10;;;;;;;8.63;100;95335.26;;;;
2019/09/08 01:09:26;;;;;;;11.95;10;;;;;;;8.63;100;95335.26;;;;
2019/09/08 01:10:27;;;;;;;11.95;10;;;;;;;8.63;100;95335.26;;;;
2019/09/08 01:11:29;;;;;;;11.95;10;;;;;;;8.63;100;95335.26;;;;
2019/09/08 01:12:31;;;;;;;9.15;8.249998;;;;;;;8.63;100;95331.73;;;;
2019/09/08 01:13:32;;;;;;;9.15;8.249998;;;;;;;8.63;100;95331.73;;;;
2019/09/08 01:14:33;;;;;;;9.15;8.249998;;;;;;;8.63;100;95331.73;;;;
2019/09/08 01:15:34;;;;;;;9.15;8.249998;;;;;;;8.63;100;95331.73;;;;
2019/09/08 01:16:36;;;;;;;9.15;8.249998;;;;;;;8.63;100;95331.73;;;;
2019/09/08 01:17:37;;;;;;;9.15;8.249998;;;;;;;8.63;100;95331.73;;;;
2019/09/08 01:18:38;;;;;;;9.15;8.249998;;;;;;;8.63;100;95331.73;;;;
2019/09/08 01:19:40;;;;;;;9.15;8.249998;;;;;;;8.63;100;95331.73;;;;
2019/09/08 01:20:41;;;;;;;9.15;8.249998;;;;;;;8.63;100;95331.73;;;;
2019/09/08 01:21:44;;;;;;;9.15;8.249998;;;;;;;8.63;100;95331.73;;;;
2019/09/08 01:22:46;;;;;;;9.15;8.249998;;;;;;;8.63;100;95331.73;;;;
2019/09/08 01:23:47;;;;;;;12.35;7.25;;;;;;;8.57;100;95325.78;;;;
2019/09/08 01:24:48;;;;;;;12.35;7.25;;;;;;;8.57;100;95325.78;;;;
2019/09/08 01:25:50;;;;;;;12.35;7.25;;;;;;;8.57;100;95325.78;;;;
2019/09/08 01:26:51;;;;;;;12.35;7.25;;;;;;;8.57;100;95325.78;;;;
2019/09/08 01:27:52;;;;;;;12.35;7.25;;;;;;;8.57;100;95325.78;;;;
2019/09/08 01:28:54;;;;;;;12.35;7.25;;;;;;;8.57;100;95325.78;;;;
2019/09/08 01:29:55;;;;;;;12.35;7.25;;;;;;;8.57;100;95325.78;;;;
2019/09/08 01:30:56;;;;;;;12.35;7.25;;;;;;;8.57;100;95325.78;;;;
2019/09/08 01:31:57;;;;;;;12.35;7.25;;;;;;;8.57;100;95325.78;;;;
2019/09/08 01:32:58;;;;;;;12.35;7.25;;;;;;;8.57;100;95325.78;;;;
2019/09/08 01:34:00;;;;;;;11.25;7.55;;;;;;;8.52;100;95307.31;;;;
2019/09/08 01:35:01;;;;;;;11.25;7.55;;;;;;;8.52;100;95307.31;;;;
2019/09/08 01:36:03;;;;;;;11.25;7.55;;;;;;;8.52;100;95307.31;;;;
2019/09/08 01:37:05;;;;;;;11.25;7.55;;;;;;;8.52;100;95307.31;;;;
2019/09/08 01:38:06;;;;;;;11.25;7.55;;;;;;;8.52;100;95307.31;;;;
2019/09/08 01:39:07;;;;;;;11.25;7.55;;;;;;;8.52;100;95307.31;;;;
2019/09/08 01:40:09;;;;;;;11.25;7.55;;;;;;;8.52;100;95307.31;;;;
2019/09/08 01:41:11;;;;;;;11.25;7.55;;;;;;;8.52;100;95307.31;;;;
2019/09/08 01:42:12;;;;;;;11.25;7.55;;;;;;;8.52;100;95307.31;;;;
2019/09/08 01:43:13;;;;;;;11.25;7.55;;;;;;;8.52;100;95307.31;;;;
2019/09/08 01:44:15;;;;;;;10.4;7.799999;;;;;;;8.44;100;95295.39;;;;
2019/09/08 01:45:16;;;;;;;10.4;7.799999;;;;;;;8.44;100;95295.39;;;;
2019/09/08 01:46:30;;;;;;;10.4;7.799999;;;;;;;8.44;100;95295.39;;;;
2019/09/08 01:47:31;;;;;;;10.4;7.799999;;;;;;;8.44;100;95295.39;;;;
2019/09/08 01:48:33;;;;;;;10.4;7.799999;;;;;;;8.44;100;95295.39;;;;
2019/09/08 01:49:34;;;;;;;10.4;7.799999;;;;;;;8.44;100;95295.39;;;;
2019/09/08 01:50:35;;;;;;;10.4;7.799999;;;;;;;8.44;100;95295.39;;;;
2019/09/08 01:51:37;;;;;;;10.4;7.799999;;;;;;;8.44;100;95295.39;;;;
2019/09/08 01:52:38;;;;;;;10.4;7.799999;;;;;;;8.44;100;95295.39;;;;
2019/09/08 01:53:39;;;;;;;10.4;7.799999;;;;;;;8.44;100;95295.39;;;;
2019/09/08 01:54:40;;;;;;;7.5;6.700001;;;;;;;8.45;100;95294.33;;;;
2019/09/08 01:55:42;;;;;;;7.5;6.700001;;;;;;;8.45;100;95294.33;;;;
2019/09/08 01:56:43;;;;;;;7.5;6.700001;;;;;;;8.45;100;95294.33;;;;
2019/09/08 01:57:44;;;;;;;7.5;6.700001;;;;;;;8.45;100;95294.33;;;;
2019/09/08 01:58:46;;;;;;;7.5;6.700001;;;;;;;8.45;100;95294.33;;;;
2019/09/08 01:59:47;;;;;;;7.5;6.700001;;;;;;;8.45;100;95294.33;;;;
2019/09/08 02:00:48;;;;;;;7.5;6.700001;;;;;;;8.45;100;95294.33;;;;
2019/09/08 02:01:50;;;;;;;7.5;6.700001;;;;;;;8.45;100;95294.33;;;;
2019/09/08 02:02:51;;;;;;;7.5;6.700001;;;;;;;8.45;100;95294.33;;;;
2019/09/08 02:03:53;;;;;;;7.5;6.700001;;;;;;;8.45;100;95294.33;;;;
2019/09/08 02:04:54;;;;;;;7.5;6.700001;;;;;;;8.45;100;95294.33;;;;
2019/09/08 02:05:56;;;;;;;8.8;7.9;;;;;;;8.42;100;95288.98;;;;
2019/09/08 02:06:58;;;;;;;8.8;7.9;;;;;;;8.42;100;95288.98;;;;
2019/09/08 02:07:59;;;;;;;8.8;7.9;;;;;;;8.42;100;95288.98;;;;
2019/09/08 02:09:00;;;;;;;8.8;7.9;;;;;;;8.42;100;95288.98;;;;
2019/09/08 02:10:02;;;;;;;8.8;7.9;;;;;;;8.42;100;95288.98;;;;
2019/09/08 02:11:05;;;;;;;8.8;7.9;;;;;;;8.42;100;95288.98;;;;
2019/09/08 02:12:06;;;;;;;8.8;7.9;;;;;;;8.42;100;95288.98;;;;
2019/09/08 02:13:07;;;;;;;8.8;7.9;;;;;;;8.42;100;95288.98;;;;
2019/09/08 02:14:09;;;;;;;8.8;7.9;;;;;;;8.42;100;95288.98;;;;
2019/09/08 02:15:10;;;;;;;8.8;7.9;;;;;;;8.42;100;95288.98;;;;
2019/09/08 02:16:12;;;;;;;8.25;7.2;;;;;;;8.48;100;95284.16;;;;
2019/09/08 02:17:13;;;;;;;8.25;7.2;;;;;;;8.48;100;95284.16;;;;
2019/09/08 02:18:14;;;;;;;8.25;7.2;;;;;;;8.48;100;95284.16;;;;
2019/09/08 02:19:16;;;;;;;8.25;7.2;;;;;;;8.48;100;95284.16;;;;
2019/09/08 02:20:17;;;;;;;8.25;7.2;;;;;;;8.48;100;95284.16;;;;
2019/09/08 02:21:20;;;;;;;8.25;7.2;;;;;;;8.48;100;95284.16;;;;
2019/09/08 02:22:21;;;;;;;8.25;7.2;;;;;;;8.48;100;95284.16;;;;
2019/09/08 02:23:22;;;;;;;8.25;7.2;;;;;;;8.48;100;95284.16;;;;
2019/09/08 02:24:24;;;;;;;8.25;7.2;;;;;;;8.48;100;95284.16;;;;
2019/09/08 02:25:25;;;;;;;8.25;7.2;;;;;;;8.48;100;95284.16;;;;
2019/09/08 02:26:28;;;;;;;8.25;7.2;;;;;;;8.48;100;95284.16;;;;
2019/09/08 02:27:29;;;;;;;9.05;7.2;;;;;;;8.48;100;95274.75;;;;
2019/09/08 02:28:30;;;;;;;9.05;7.2;;;;;;;8.48;100;95274.75;;;;
2019/09/08 02:29:32;;;;;;;9.05;7.2;;;;;;;8.48;100;95274.75;;;;
2019/09/08 02:30:33;;;;;;;9.05;7.2;;;;;;;8.48;100;95274.75;;;;
2019/09/08 02:31:35;;;;;;;9.05;7.2;;;;;;;8.48;100;95274.75;;;;
2019/09/08 02:32:36;;;;;;;9.05;7.2;;;;;;;8.48;100;95274.75;;;;
2019/09/08 02:33:38;;;;;;;9.05;7.2;;;;;;;8.48;100;95274.75;;;;
2019/09/08 02:34:39;;;;;;;9.05;7.2;;;;;;;8.48;100;95274.75;;;;
2019/09/08 02:35:40;;;;;;;9.05;7.2;;;;;;;8.48;100;95274.75;;;;
2019/09/08 02:36:41;;;;;;;9.05;7.2;;;;;;;8.48;100;95274.75;;;;
2019/09/08 02:37:42;;;;;;;7.799999;7;;;;;;;8.56;100;95277.15;;;;
2019/09/08 02:38:43;;;;;;;7.799999;7;;;;;;;8.56;100;95277.15;;;;
2019/09/08 02:39:44;;;;;;;7.799999;7;;;;;;;8.56;100;95277.15;;;;
2019/09/08 02:40:46;;;;;;;7.799999;7;;;;;;;8.56;100;95277.15;;;;
2019/09/08 02:41:47;;;;;;;7.799999;7;;;;;;;8.56;100;95277.15;;;;
2019/09/08 02:42:48;;;;;;;7.799999;7;;;;;;;8.56;100;95277.15;;;;
2019/09/08 02:43:49;;;;;;;7.799999;7;;;;;;;8.56;100;95277.15;;;;
2019/09/08 02:44:51;;;;;;;7.799999;7;;;;;;;8.56;100;95277.15;;;;
2019/09/08 02:45:52;;;;;;;7.799999;7;;;;;;;8.56;100;95277.15;;;;
2019/09/08 02:46:53;;;;;;;7.799999;7;;;;;;;8.56;100;95277.15;;;;
2019/09/08 02:47:54;;;;;;;7.799999;7;;;;;;;8.56;100;95277.15;;;;
2019/09/08 02:48:56;;;;;;;7.799999;7;;;;;;;8.56;100;95277.15;;;;
2019/09/08 02:49:57;;;;;;;7.799999;7;;;;;;;8.56;100;95277.15;;;;
2019/09/08 02:50:58;;;;;;;7.799999;7;;;;;;;8.56;100;95277.15;;;;
2019/09/08 02:51:59;;;;;;;7.799999;7;;;;;;;8.56;100;95277.15;;;;
2019/09/08 02:53:00;;;;;;;7.799999;7;;;;;;;8.56;100;95277.15;;;;
2019/09/08 02:54:01;;;;;;;7.799999;7;;;;;;;8.56;100;95277.15;;;;
2019/09/08 02:55:03;;;;;;;7.799999;7;;;;;;;8.56;100;95277.15;;;;
2019/09/08 02:56:04;;;;;;;7.799999;7;;;;;;;8.56;100;95277.15;;;;
2019/09/08 02:57:05;;;;;;;7.799999;7;;;;;;;8.56;100;95277.15;;;;
2019/09/08 02:58:07;;;;;;;7.799999;7;;;;;;;8.56;100;95277.15;;;;
2019/09/08 02:59:08;;;;;;;7.15;5.6;;;;;;;8.62;100;95268.59;;;;
2019/09/08 03:00:09;;;;;;;7.15;5.6;;;;;;;8.62;100;95268.59;;;;
2019/09/08 03:01:11;;;;;;;7.15;5.6;;;;;;;8.62;100;95268.59;;;;
2019/09/08 03:02:12;;;;;;;7.15;5.6;;;;;;;8.62;100;95268.59;;;;
2019/09/08 03:03:13;;;;;;;7.15;5.6;;;;;;;8.62;100;95268.59;;;;
2019/09/08 03:04:14;;;;;;;7.15;5.6;;;;;;;8.62;100;95268.59;;;;
2019/09/08 03:05:16;;;;;;;7.15;5.6;;;;;;;8.62;100;95268.59;;;;
2019/09/08 03:06:17;;;;;;;7.15;5.6;;;;;;;8.62;100;95268.59;;;;
2019/09/08 03:07:18;;;;;;;7.15;5.6;;;;;;;8.62;100;95268.59;;;;
2019/09/08 03:08:20;;;;;;;7.15;5.6;;;;;;;8.62;100;95268.59;;;;
2019/09/08 03:09:21;;;;;;;5.199999;4.699999;;;;;;;8.5;100;95265.94;;;;
2019/09/08 03:10:22;;;;;;;5.199999;4.699999;;;;;;;8.5;100;95265.94;;;;
2019/09/08 03:11:24;;;;;;;5.199999;4.699999;;;;;;;8.5;100;95265.94;;;;
2019/09/08 03:12:25;;;;;;;5.199999;4.699999;;;;;;;8.5;100;95265.94;;;;
2019/09/08 03:13:26;;;;;;;5.199999;4.699999;;;;;;;8.5;100;95265.94;;;;
2019/09/08 03:14:27;;;;;;;5.199999;4.699999;;;;;;;8.5;100;95265.94;;;;
2019/09/08 03:15:29;;;;;;;5.199999;4.699999;;;;;;;8.5;100;95265.94;;;;
2019/09/08 03:16:31;;;;;;;5.199999;4.699999;;;;;;;8.5;100;95265.94;;;;
2019/09/08 03:17:32;;;;;;;5.199999;4.699999;;;;;;;8.5;100;95265.94;;;;
2019/09/08 03:18:33;;;;;;;5.199999;4.699999;;;;;;;8.5;100;95265.94;;;;
2019/09/08 03:19:34;;;;;;;5.199999;4.699999;;;;;;;8.5;100;95265.94;;;;
2019/09/08 03:20:35;;;;;;;6.799999;4.349999;;;;;;;8.44;100;95251.92;;;;
2019/09/08 03:21:40;;;;;;;6.799999;4.349999;;;;;;;8.44;100;95251.92;;;;
2019/09/08 03:22:41;;;;;;;6.799999;4.349999;;;;;;;8.44;100;95251.92;;;;
2019/09/08 03:23:42;;;;;;;6.799999;4.349999;;;;;;;8.44;100;95251.92;;;;
2019/09/08 03:24:43;;;;;;;6.799999;4.349999;;;;;;;8.44;100;95251.92;;;;
2019/09/08 03:25:44;;;;;;;6.799999;4.349999;;;;;;;8.44;100;95251.92;;;;
2019/09/08 03:26:46;;;;;;;6.799999;4.349999;;;;;;;8.44;100;95251.92;;;;
2019/09/08 03:27:47;;;;;;;6.799999;4.349999;;;;;;;8.44;100;95251.92;;;;
2019/09/08 03:28:48;;;;;;;6.799999;4.349999;;;;;;;8.44;100;95251.92;;;;
2019/09/08 03:29:49;;;;;;;6.799999;4.349999;;;;;;;8.44;100;95251.92;;;;
2019/09/08 03:30:50;;;;;;;5.699999;4.25;;;;;;;8.25;100;95245.4;;;;
2019/09/08 03:31:52;;;;;;;5.699999;4.25;;;;;;;8.25;100;95245.4;;;;
2019/09/08 03:32:53;;;;;;;5.699999;4.25;;;;;;;8.25;100;95245.4;;;;
2019/09/08 03:33:54;;;;;;;5.699999;4.25;;;;;;;8.25;100;95245.4;;;;
2019/09/08 03:34:56;;;;;;;5.699999;4.25;;;;;;;8.25;100;95245.4;;;;
2019/09/08 03:35:57;;;;;;;5.699999;4.25;;;;;;;8.25;100;95245.4;;;;
2019/09/08 03:36:58;;;;;;;5.699999;4.25;;;;;;;8.25;100;95245.4;;;;
2019/09/08 03:37:59;;;;;;;5.699999;4.25;;;;;;;8.25;100;95245.4;;;;
2019/09/08 03:39:00;;;;;;;5.699999;4.25;;;;;;;8.25;100;95245.4;;;;
2019/09/08 03:40:02;;;;;;;5.699999;4.25;;;;;;;8.25;100;95245.4;;;;
2019/09/08 03:41:03;;;;;;;5.699999;4.25;;;;;;;8.25;100;95245.4;;;;
2019/09/08 03:42:05;;;;;;;4.600001;4.199999;;;;;;;8.09;100;95243.26;;;;
2019/09/08 03:43:06;;;;;;;4.600001;4.199999;;;;;;;8.09;100;95243.26;;;;
2019/09/08 03:44:07;;;;;;;4.600001;4.199999;;;;;;;8.09;100;95243.26;;;;
2019/09/08 03:45:08;;;;;;;4.600001;4.199999;;;;;;;8.09;100;95243.26;;;;
2019/09/08 03:46:12;;;;;;;4.600001;4.199999;;;;;;;8.09;100;95243.26;;;;
2019/09/08 03:47:13;;;;;;;4.600001;4.199999;;;;;;;8.09;100;95243.26;;;;
2019/09/08 03:48:14;;;;;;;4.600001;4.199999;;;;;;;8.09;100;95243.26;;;;
2019/09/08 03:49:15;;;;;;;4.600001;4.199999;;;;;;;8.09;100;95243.26;;;;
2019/09/08 03:50:16;;;;;;;4.600001;4.199999;;;;;;;8.09;100;95243.26;;;;
2019/09/08 03:51:19;;;;;;;4.600001;4.199999;;;;;;;8.09;100;95243.26;;;;
2019/09/08 03:52:20;;;;;;;4.7;4.2;;;;;;;7.84;100;95247.74;;;;
2019/09/08 03:53:21;;;;;;;4.7;4.2;;;;;;;7.84;100;95247.74;;;;
2019/09/08 03:54:22;;;;;;;4.7;4.2;;;;;;;7.84;100;95247.74;;;;
2019/09/08 03:55:23;;;;;;;4.7;4.2;;;;;;;7.84;100;95247.74;;;;
2019/09/08 03:56:27;;;;;;;4.7;4.2;;;;;;;7.84;100;95247.74;;;;
2019/09/08 03:57:28;;;;;;;4.7;4.2;;;;;;;7.84;100;95247.74;;;;
2019/09/08 03:58:29;;;;;;;4.7;4.2;;;;;;;7.84;100;95247.74;;;;
2019/09/08 03:59:30;;;;;;;4.7;4.2;;;;;;;7.84;100;95247.74;;;;
2019/09/08 04:00:31;;;;;;;4.7;4.2;;;;;;;7.84;100;95247.74;;;;
2019/09/08 04:01:34;;;;;;;4.7;4.2;;;;;;;7.84;100;95247.74;;;;
2019/09/08 04:02:35;;;;;;;5.8;4.550001;;;;;;;7.7;100;95249.27;;;;
2019/09/08 04:03:36;;;;;;;5.8;4.550001;;;;;;;7.7;100;95249.27;;;;
2019/09/08 04:04:37;;;;;;;5.8;4.550001;;;;;;;7.7;100;95249.27;;;;
2019/09/08 04:05:38;;;;;;;5.8;4.550001;;;;;;;7.7;100;95249.27;;;;
2019/09/08 04:06:40;;;;;;;5.8;4.550001;;;;;;;7.7;100;95249.27;;;;
2019/09/08 04:07:41;;;;;;;5.8;4.550001;;;;;;;7.7;100;95249.27;;;;
2019/09/08 04:08:42;;;;;;;5.8;4.550001;;;;;;;7.7;100;95249.27;;;;
2019/09/08 04:09:43;;;;;;;5.8;4.550001;;;;;;;7.7;100;95249.27;;;;
2019/09/08 04:10:44;;;;;;;5.8;4.550001;;;;;;;7.7;100;95249.27;;;;
2019/09/08 04:11:45;;;;;;;5.8;4.550001;;;;;;;7.7;100;95249.27;;;;
2019/09/08 04:12:46;;;;;;;5.8;4.550001;;;;;;;7.7;100;95249.27;;;;
2019/09/08 04:13:48;;;;;;;5.55;4.65;;;;;;;7.53;100;95262.13;;;;
2019/09/08 04:14:49;;;;;;;5.55;4.65;;;;;;;7.53;100;95262.13;;;;
2019/09/08 04:15:50;;;;;;;5.55;4.65;;;;;;;7.53;100;95262.13;;;;
2019/09/08 04:16:51;;;;;;;5.55;4.65;;;;;;;7.53;100;95262.13;;;;
2019/09/08 04:17:52;;;;;;;5.55;4.65;;;;;;;7.53;100;95262.13;;;;
2019/09/08 04:18:53;;;;;;;5.55;4.65;;;;;;;7.53;100;95262.13;;;;
2019/09/08 04:19:54;;;;;;;5.55;4.65;;;;;;;7.53;100;95262.13;;;;
2019/09/08 04:20:55;;;;;;;5.55;4.65;;;;;;;7.53;100;95262.13;;;;
2019/09/08 04:21:57;;;;;;;5.55;4.65;;;;;;;7.53;100;95262.13;;;;
2019/09/08 04:22:58;;;;;;;5.55;4.65;;;;;;;7.53;100;95262.13;;;;
2019/09/08 04:23:59;;;;;;;4.800001;4.35;;;;;;;7.54;100;95260.57;;;;
2019/09/08 04:25:00;;;;;;;4.800001;4.35;;;;;;;7.54;100;95260.57;;;;
2019/09/08 04:26:01;;;;;;;4.800001;4.35;;;;;;;7.54;100;95260.57;;;;
2019/09/08 04:27:02;;;;;;;4.800001;4.35;;;;;;;7.54;100;95260.57;;;;
2019/09/08 04:28:04;;;;;;;4.800001;4.35;;;;;;;7.54;100;95260.57;;;;
2019/09/08 04:29:06;;;;;;;4.800001;4.35;;;;;;;7.54;100;95260.57;;;;
2019/09/08 04:30:07;;;;;;;4.800001;4.35;;;;;;;7.54;100;95260.57;;;;
2019/09/08 04:31:23;;;;;;;4.800001;4.35;;;;;;;7.54;100;95260.57;;;;
2019/09/08 04:32:24;;;;;;;4.800001;4.35;;;;;;;7.54;100;95260.57;;;;
2019/09/08 04:33:25;;;;;;;4.800001;4.35;;;;;;;7.54;100;95260.57;;;;
2019/09/08 04:34:26;;;;;;;4.9;4.25;;;;;;;7.57;100;95260.24;;;;
2019/09/08 04:35:27;;;;;;;4.9;4.25;;;;;;;7.57;100;95260.24;;;;
2019/09/08 04:36:29;;;;;;;4.9;4.25;;;;;;;7.57;100;95260.24;;;;
2019/09/08 04:37:30;;;;;;;4.9;4.25;;;;;;;7.57;100;95260.24;;;;
2019/09/08 04:38:31;;;;;;;4.9;4.25;;;;;;;7.57;100;95260.24;;;;
2019/09/08 04:39:32;;;;;;;4.9;4.25;;;;;;;7.57;100;95260.24;;;;
2019/09/08 04:40:33;;;;;;;4.9;4.25;;;;;;;7.57;100;95260.24;;;;
2019/09/08 04:41:36;;;;;;;4.9;4.25;;;;;;;7.57;100;95260.24;;;;
2019/09/08 04:42:37;;;;;;;4.9;4.25;;;;;;;7.57;100;95260.24;;;;
2019/09/08 04:43:38;;;;;;;4.9;4.25;;;;;;;7.57;100;95260.24;;;;
2019/09/08 04:44:39;;;;;;;4.9;4.25;;;;;;;7.57;100;95260.24;;;;
2019/09/08 04:45:40;;;;;;;6;5.2;;;;;;;7.69;100;95230.69;;;;
2019/09/08 04:46:41;;;;;;;6;5.2;;;;;;;7.69;100;95230.69;;;;
2019/09/08 04:47:43;;;;;;;6;5.2;;;;;;;7.69;100;95230.69;;;;
2019/09/08 04:48:44;;;;;;;6;5.2;;;;;;;7.69;100;95230.69;;;;
2019/09/08 04:49:45;;;;;;;6;5.2;;;;;;;7.69;100;95230.69;;;;
2019/09/08 04:50:46;;;;;;;6;5.2;;;;;;;7.69;100;95230.69;;;;
2019/09/08 04:51:47;;;;;;;6;5.2;;;;;;;7.69;100;95230.69;;;;
2019/09/08 04:52:48;;;;;;;6;5.2;;;;;;;7.69;100;95230.69;;;;
2019/09/08 04:53:49;;;;;;;6;5.2;;;;;;;7.69;100;95230.69;;;;
2019/09/08 04:54:50;;;;;;;6;5.2;;;;;;;7.69;100;95230.69;;;;
2019/09/08 04:55:52;;;;;;;5;4.349999;;;;;;;7.74;100;95246.04;;;;
2019/09/08 04:56:53;;;;;;;5;4.349999;;;;;;;7.74;100;95246.04;;;;
2019/09/08 04:57:54;;;;;;;5;4.349999;;;;;;;7.74;100;95246.04;;;;
2019/09/08 04:58:55;;;;;;;5;4.349999;;;;;;;7.74;100;95246.04;;;;
2019/09/08 04:59:56;;;;;;;5;4.349999;;;;;;;7.74;100;95246.04;;;;
2019/09/08 05:00:57;;;;;;;5;4.349999;;;;;;;7.74;100;95246.04;;;;
2019/09/08 05:01:58;;;;;;;5;4.349999;;;;;;;7.74;100;95246.04;;;;
2019/09/08 05:03:00;;;;;;;5;4.349999;;;;;;;7.74;100;95246.04;;;;
2019/09/08 05:04:01;;;;;;;5;4.349999;;;;;;;7.74;100;95246.04;;;;
2019/09/08 05:05:02;;;;;;;5;4.349999;;;;;;;7.74;100;95246.04;;;;
2019/09/08 05:06:04;;;;;;;6.050001;5;;;;;;;7.88;100;95234.12;;;;
2019/09/08 05:07:05;;;;;;;6.050001;5;;;;;;;7.88;100;95234.12;;;;
2019/09/08 05:08:06;;;;;;;6.050001;5;;;;;;;7.88;100;95234.12;;;;
2019/09/08 05:09:08;;;;;;;6.050001;5;;;;;;;7.88;100;95234.12;;;;
2019/09/08 05:10:09;;;;;;;6.050001;5;;;;;;;7.88;100;95234.12;;;;
2019/09/08 05:11:11;;;;;;;6.050001;5;;;;;;;7.88;100;95234.12;;;;
2019/09/08 05:12:12;;;;;;;6.050001;5;;;;;;;7.88;100;95234.12;;;;
2019/09/08 05:13:13;;;;;;;6.050001;5;;;;;;;7.88;100;95234.12;;;;
2019/09/08 05:14:14;;;;;;;6.050001;5;;;;;;;7.88;100;95234.12;;;;
2019/09/08 05:15:16;;;;;;;6.050001;5;;;;;;;7.88;100;95234.12;;;;
2019/09/08 05:16:17;;;;;;;6.050001;5;;;;;;;7.88;100;95234.12;;;;
2019/09/08 05:17:18;;;;;;;6.249999;5.349999;;;;;;;7.99;100;95238.79;;;;
2019/09/08 05:18:20;;;;;;;6.249999;5.349999;;;;;;;7.99;100;95238.79;;;;
2019/09/08 05:19:21;;;;;;;6.249999;5.349999;;;;;;;7.99;100;95238.79;;;;
2019/09/08 05:20:22;;;;;;;6.249999;5.349999;;;;;;;7.99;100;95238.79;;;;
2019/09/08 05:21:25;;;;;;;6.249999;5.349999;;;;;;;7.99;100;95238.79;;;;
2019/09/08 05:22:26;;;;;;;6.249999;5.349999;;;;;;;7.99;100;95238.79;;;;
2019/09/08 05:23:27;;;;;;;6.249999;5.349999;;;;;;;7.99;100;95238.79;;;;
2019/09/08 05:24:29;;;;;;;6.249999;5.349999;;;;;;;7.99;100;95238.79;;;;
2019/09/08 05:25:30;;;;;;;6.249999;5.349999;;;;;;;7.99;100;95238.79;;;;
2019/09/08 05:26:31;;;;;;;6.249999;5.349999;;;;;;;7.99;100;95238.79;;;;
2019/09/08 05:27:32;;;;;;;5.349999;4.849999;;;;;;;8.19;100;95226.9;;;;
2019/09/08 05:28:33;;;;;;;5.349999;4.849999;;;;;;;8.19;100;95226.9;;;;
2019/09/08 05:29:34;;;;;;;5.349999;4.849999;;;;;;;8.19;100;95226.9;;;;
2019/09/08 05:30:35;;;;;;;5.349999;4.849999;;;;;;;8.19;100;95226.9;;;;
2019/09/08 05:31:41;;;;;;;5.349999;4.849999;;;;;;;8.19;100;95226.9;;;;
2019/09/08 05:32:42;;;;;;;5.349999;4.849999;;;;;;;8.19;100;95226.9;;;;
2019/09/08 05:33:43;;;;;;;5.349999;4.849999;;;;;;;8.19;100;95226.9;;;;
2019/09/08 05:34:44;;;;;;;5.349999;4.849999;;;;;;;8.19;100;95226.9;;;;
2019/09/08 05:35:45;;;;;;;5.349999;4.849999;;;;;;;8.19;100;95226.9;;;;
2019/09/08 05:36:46;;;;;;;5.349999;4.849999;;;;;;;8.19;100;95226.9;;;;
2019/09/08 05:37:47;;;;;;;5.750001;4.75;;;;;;;8.34;100;95217.07;;;;
2019/09/08 05:38:49;;;;;;;5.750001;4.75;;;;;;;8.34;100;95217.07;;;;
2019/09/08 05:39:50;;;;;;;5.750001;4.75;;;;;;;8.34;100;95217.07;;;;
2019/09/08 05:40:51;;;;;;;5.750001;4.75;;;;;;;8.34;100;95217.07;;;;
2019/09/08 05:41:52;;;;;;;5.750001;4.75;;;;;;;8.34;100;95217.07;;;;
2019/09/08 05:42:53;;;;;;;5.750001;4.75;;;;;;;8.34;100;95217.07;;;;
2019/09/08 05:43:54;;;;;;;5.750001;4.75;;;;;;;8.34;100;95217.07;;;;
2019/09/08 05:44:55;;;;;;;5.750001;4.75;;;;;;;8.34;100;95217.07;;;;
2019/09/08 05:45:57;;;;;;;5.750001;4.75;;;;;;;8.34;100;95217.07;;;;
2019/09/08 05:46:58;;;;;;;5.750001;4.75;;;;;;;8.34;100;95217.07;;;;
2019/09/08 05:47:59;;;;;;;5.750001;4.75;;;;;;;8.34;100;95217.07;;;;
2019/09/08 05:49:00;;;;;;;5.299999;4.799999;;;;;;;8.63;100;95236.1;;;;
2019/09/08 05:50:01;;;;;;;5.299999;4.799999;;;;;;;8.63;100;95236.1;;;;
2019/09/08 05:51:03;;;;;;;5.299999;4.799999;;;;;;;8.63;100;95236.1;;;;
2019/09/08 05:52:04;;;;;;;5.299999;4.799999;;;;;;;8.63;100;95236.1;;;;
2019/09/08 05:53:05;;;;;;;5.299999;4.799999;;;;;;;8.63;100;95236.1;;;;
2019/09/08 05:54:07;;;;;;;5.299999;4.799999;;;;;;;8.63;100;95236.1;;;;
2019/09/08 05:55:08;;;;;;;5.299999;4.799999;;;;;;;8.63;100;95236.1;;;;
2019/09/08 05:56:11;;;;;;;5.299999;4.799999;;;;;;;8.63;100;95236.1;;;;
2019/09/08 05:57:12;;;;;;;5.299999;4.799999;;;;;;;8.63;100;95236.1;;;;
2019/09/08 05:58:13;;;;;;;5.299999;4.799999;;;;;;;8.63;100;95236.1;;;;
2019/09/08 05:59:15;;;;;;;6.85;4.149999;;;;;;;8.91;100;95193.79;;;;
2019/09/08 06:00:16;;;;;;;6.85;4.149999;;;;;;;8.91;100;95193.79;;;;
2019/09/08 06:01:18;;;;;;;6.85;4.149999;;;;;;;8.91;100;95193.79;;;;
2019/09/08 06:02:19;;;;;;;6.85;4.149999;;;;;;;8.91;100;95193.79;;;;
2019/09/08 06:03:20;;;;;;;6.85;4.149999;;;;;;;8.91;100;95193.79;;;;
2019/09/08 06:04:22;;;;;;;6.85;4.149999;;;;;;;8.91;100;95193.79;;;;
2019/09/08 06:05:23;;;;;;;6.85;4.149999;;;;;;;8.91;100;95193.79;;;;
2019/09/08 06:06:25;;;;;;;6.85;4.149999;;;;;;;8.91;100;95193.79;;;;
2019/09/08 06:07:26;;;;;;;6.85;4.149999;;;;;;;8.91;100;95193.79;;;;